Time;durP1;ratioP1;P1;durP2;ratioP2;P2;SDS_P1;SDS_P2;PMS_P1;PMS_P2;Temp;Humidity;BMP_temperature;BMP_pressure;BME280_temperature;BME280_humidity;BME280_pressure;Samples;Min_cycle;Max_cycle;Signal;HPM_P1;HPM_P2
2022/01/29 00:00:54;;;;;;;35.72;27.80;;;6.90;99.90;;;;;;5035369;28;20187;-58
2022/01/29 00:03:20;;;;;;;36.80;29.02;;;7.10;99.90;;;;;;5035181;28;20684;-58
2022/01/29 00:05:46;;;;;;;35.15;27.85;;;7.10;99.90;;;;;;5035283;28;20179;-58
2022/01/29 00:08:11;;;;;;;43.25;28.83;;;7.20;99.90;;;;;;5035479;28;20538;-58
2022/01/29 00:10:37;;;;;;;40.55;28.67;;;7.00;99.90;;;;;;5035495;28;20176;-58
2022/01/29 00:13:03;;;;;;;42.13;30.10;;;6.90;99.90;;;;;;5035286;28;20214;-58
2022/01/29 00:15:29;;;;;;;44.38;30.48;;;6.90;99.90;;;;;;5035090;28;20642;-57
2022/01/29 00:17:55;;;;;;;42.97;31.80;;;6.80;99.90;;;;;;5035112;28;20182;-58
2022/01/29 00:20:20;;;;;;;41.00;29.55;;;6.90;99.90;;;;;;5035268;28;20207;-58
2022/01/29 00:22:46;;;;;;;42.88;30.52;;;6.90;99.90;;;;;;5035050;28;20238;-58
2022/01/29 00:25:12;;;;;;;42.83;29.85;;;6.80;99.90;;;;;;5034993;28;20210;-59
2022/01/29 00:27:39;;;;;;;40.47;30.70;;;6.80;99.90;;;;;;5017195;28;20179;-58
2022/01/29 00:30:13;;;;;;;47.78;32.08;;;6.90;99.90;;;;;;5034774;28;20195;-58
2022/01/29 00:32:38;;;;;;;38.10;30.35;;;6.90;99.90;;;;;;5034617;28;20229;-58
2022/01/29 00:35:06;;;;;;;45.67;31.58;;;6.80;99.90;;;;;;5034716;28;20621;-58
2022/01/29 00:37:32;;;;;;;43.83;31.63;;;6.80;99.90;;;;;;5034780;28;20171;-58
2022/01/29 00:39:57;;;;;;;47.83;32.65;;;6.70;99.90;;;;;;5034816;28;20172;-58
2022/01/29 00:42:23;;;;;;;50.17;32.33;;;6.80;99.90;;;;;;5034537;28;20260;-58
2022/01/29 00:44:50;;;;;;;53.53;35.20;;;6.80;99.90;;;;;;5034528;28;20241;-58
2022/01/29 00:47:16;;;;;;;47.92;34.88;;;7.00;99.90;;;;;;5034417;28;20202;-58
2022/01/29 00:49:42;;;;;;;49.20;33.63;;;6.80;99.90;;;;;;5034625;28;20207;-57
2022/01/29 00:52:08;;;;;;;57.63;34.28;;;6.80;99.90;;;;;;5034638;28;20687;-58
2022/01/29 00:54:34;;;;;;;52.90;37.97;;;6.90;99.90;;;;;;5034511;28;20190;-58
2022/01/29 00:57:00;;;;;;;49.28;35.22;;;6.90;99.90;;;;;;5034464;28;20181;-58
2022/01/29 00:59:25;;;;;;;51.08;32.08;;;6.90;99.90;;;;;;5034250;28;20187;-59
2022/01/29 01:01:51;;;;;;;58.08;38.75;;;6.90;99.90;;;;;;5033214;28;20210;-57
2022/01/29 01:04:17;;;;;;;51.25;36.42;;;7.00;99.90;;;;;;5034331;28;20236;-58
2022/01/29 01:06:43;;;;;;;59.97;37.08;;;7.00;99.90;;;;;;5034262;28;20636;-58
2022/01/29 01:09:08;;;;;;;57.83;37.33;;;7.10;99.90;;;;;;5034193;28;20183;-59
2022/01/29 01:11:34;;;;;;;57.58;36.88;;;7.10;99.90;;;;;;5034138;28;20176;-58
2022/01/29 01:14:00;;;;;;;63.58;37.00;;;7.00;99.90;;;;;;5034030;28;20176;-58
2022/01/29 01:16:25;;;;;;;56.60;37.75;;;6.90;99.90;;;;;;5033931;28;20210;-58
2022/01/29 01:18:51;;;;;;;53.25;33.63;;;7.00;99.90;;;;;;5034100;28;20544;-58
2022/01/29 01:21:17;;;;;;;63.70;37.60;;;7.00;99.90;;;;;;5034065;28;20590;-58
2022/01/29 01:23:42;;;;;;;66.07;40.05;;;7.00;99.90;;;;;;5034088;28;20695;-58
2022/01/29 01:26:08;;;;;;;62.95;38.80;;;7.10;99.90;;;;;;5033986;28;20183;-58
2022/01/29 01:28:34;;;;;;;54.13;37.72;;;7.00;99.90;;;;;;5033772;28;20203;-58
2022/01/29 01:31:00;;;;;;;60.63;36.50;;;7.00;99.90;;;;;;5033512;28;20289;-58
2022/01/29 01:33:26;;;;;;;60.53;35.42;;;7.10;99.90;;;;;;5032587;28;20241;-58
2022/01/29 01:35:56;;;;;;;67.80;36.90;;;7.00;99.90;;;;;;5032523;28;20186;-58
2022/01/29 01:38:34;;;;;;;54.70;35.00;;;7.20;99.90;;;;;;5033666;28;20191;-58
2022/01/29 01:41:04;;;;;;;59.50;36.42;;;7.10;99.90;;;;;;5033629;28;20187;-59
2022/01/29 01:43:30;;;;;;;57.38;37.28;;;7.20;99.90;;;;;;5033321;28;20208;-59
2022/01/29 01:45:55;;;;;;;65.68;36.60;;;7.30;99.90;;;;;;5033658;28;20179;-58
2022/01/29 01:48:21;;;;;;;63.33;36.80;;;7.30;99.90;;;;;;5033397;28;20191;-58
2022/01/29 01:50:47;;;;;;;57.78;32.03;;;7.10;99.90;;;;;;5033621;28;20194;-58
2022/01/29 01:53:13;;;;;;;55.78;32.88;;;7.20;99.90;;;;;;5033416;28;20263;-59
2022/01/29 01:55:39;;;;;;;52.78;32.65;;;7.10;99.90;;;;;;5033403;28;20180;-58
2022/01/29 01:58:05;;;;;;;53.50;34.13;;;7.10;99.90;;;;;;5033314;28;20180;-58
2022/01/29 02:00:32;;;;;;;51.13;34.58;;;7.20;99.90;;;;;;5033331;28;20232;-58
2022/01/29 02:02:57;;;;;;;51.75;34.08;;;7.20;99.90;;;;;;5033268;28;20672;-58
2022/01/29 02:05:23;;;;;;;61.20;36.47;;;7.20;99.90;;;;;;5033254;28;20306;-59
2022/01/29 02:07:49;;;;;;;59.97;35.30;;;7.30;99.90;;;;;;5033328;28;20175;-58
2022/01/29 02:10:17;;;;;;;68.95;33.75;;;7.40;99.90;;;;;;5033326;28;20242;-59
2022/01/29 02:12:52;;;;;;;49.00;33.25;;;7.40;99.90;;;;;;5032568;28;20237;-58
2022/01/29 02:15:20;;;;;;;56.47;34.92;;;7.30;99.90;;;;;;5032597;28;20190;-58
2022/01/29 02:17:47;;;;;;;50.10;32.38;;;7.30;99.90;;;;;;5033320;28;20262;-58
2022/01/29 02:20:18;;;;;;;57.80;34.20;;;7.40;99.90;;;;;;5033147;28;20186;-59
2022/01/29 02:22:45;;;;;;;56.92;30.58;;;7.20;99.90;;;;;;5033001;28;20297;-58
2022/01/29 02:25:38;;;;;;;51.92;28.67;;;7.30;99.90;;;;;;5032947;28;20178;-59
2022/01/29 02:28:05;;;;;;;53.78;31.88;;;7.30;99.90;;;;;;5033124;28;20179;-58
2022/01/29 02:30:33;;;;;;;48.83;28.77;;;7.30;99.90;;;;;;5033223;28;20179;-58
2022/01/29 02:33:00;;;;;;;68.10;35.42;;;7.30;99.90;;;;;;5031824;28;20242;-58
2022/01/29 02:35:27;;;;;;;47.97;28.20;;;7.40;99.90;;;;;;5032851;28;20229;-59
2022/01/29 02:37:55;;;;;;;49.33;27.98;;;7.40;99.90;;;;;;5033111;28;20184;-58
2022/01/29 02:40:24;;;;;;;48.30;29.95;;;7.40;99.90;;;;;;5033076;28;20176;-58
2022/01/29 02:42:53;;;;;;;43.58;28.05;;;7.40;99.90;;;;;;5031749;28;20268;-59
2022/01/29 02:45:19;;;;;;;47.60;27.90;;;7.40;99.90;;;;;;5033011;28;20194;-59
2022/01/29 02:47:45;;;;;;;44.30;27.02;;;7.60;99.90;;;;;;5032796;28;20188;-59
2022/01/29 02:50:11;;;;;;;41.47;27.33;;;7.50;99.90;;;;;;5032757;28;20225;-58
2022/01/29 02:52:36;;;;;;;41.25;25.98;;;7.50;99.90;;;;;;5032914;28;20282;-59
2022/01/29 02:55:04;;;;;;;38.10;24.85;;;7.50;99.90;;;;;;5032888;28;20591;-59
2022/01/29 02:57:29;;;;;;;35.78;22.80;;;7.50;99.90;;;;;;5032818;28;20180;-58
2022/01/29 03:00:00;;;;;;;42.17;24.75;;;7.50;99.90;;;;;;5032854;28;20199;-59
2022/01/29 03:02:27;;;;;;;42.55;25.38;;;7.60;99.90;;;;;;5032601;28;20215;-58
2022/01/29 03:04:53;;;;;;;38.80;24.23;;;7.70;99.90;;;;;;5032645;28;20202;-59
2022/01/29 03:07:19;;;;;;;38.95;25.23;;;7.70;99.90;;;;;;5032961;28;20632;-58
2022/01/29 03:09:45;;;;;;;37.25;24.73;;;7.60;99.90;;;;;;5032778;28;20181;-58
2022/01/29 03:12:10;;;;;;;35.72;23.10;;;7.70;99.90;;;;;;5032930;28;20256;-58
2022/01/29 03:14:36;;;;;;;33.38;23.92;;;7.60;99.90;;;;;;5031430;28;20178;-58
2022/01/29 03:17:02;;;;;;;36.08;23.42;;;7.60;99.90;;;;;;5032575;28;20188;-59
2022/01/29 03:19:27;;;;;;;37.85;24.88;;;7.60;99.90;;;;;;5032578;28;20218;-57
2022/01/29 03:21:53;;;;;;;34.30;23.00;;;7.70;99.90;;;;;;5032605;28;20254;-59
2022/01/29 03:24:18;;;;;;;33.90;24.00;;;7.70;99.90;;;;;;5032648;28;20655;-59
2022/01/29 03:26:44;;;;;;;36.78;23.83;;;7.60;99.90;;;;;;5035898;28;20179;-58
2022/01/29 03:29:10;;;;;;;35.28;23.67;;;7.70;99.90;;;;;;5036049;28;20187;-59
2022/01/29 03:31:35;;;;;;;29.75;21.33;;;7.80;99.90;;;;;;5036165;28;20650;-58
2022/01/29 03:34:01;;;;;;;31.58;22.40;;;7.70;99.90;;;;;;5035897;28;20206;-58
2022/01/29 03:36:27;;;;;;;28.67;20.88;;;7.70;99.90;;;;;;5036020;28;20172;-58
2022/01/29 03:38:52;;;;;;;27.25;20.48;;;7.70;99.90;;;;;;5035080;28;20624;-58
2022/01/29 03:41:18;;;;;;;23.27;18.77;;;7.70;99.90;;;;;;5035923;28;20508;-59
2022/01/29 03:43:47;;;;;;;27.52;19.90;;;7.70;99.90;;;;;;5035783;28;20669;-58
2022/01/29 03:46:14;;;;;;;29.17;21.55;;;7.70;99.90;;;;;;5035701;28;20182;-58
2022/01/29 03:48:39;;;;;;;26.58;19.20;;;7.80;99.90;;;;;;5035621;28;20698;-58
2022/01/29 03:51:05;;;;;;;23.05;18.15;;;7.80;99.90;;;;;;5035854;28;20172;-58
2022/01/29 03:53:31;;;;;;;24.45;18.85;;;7.80;99.90;;;;;;5035699;28;20604;-58
2022/01/29 03:55:56;;;;;;;25.65;18.92;;;7.90;99.90;;;;;;5035699;28;20180;-59
2022/01/29 03:58:22;;;;;;;22.25;17.40;;;8.00;99.90;;;;;;5035634;28;20187;-59
2022/01/29 04:00:48;;;;;;;23.15;17.85;;;8.00;99.90;;;;;;5035647;28;20172;-58
2022/01/29 04:03:13;;;;;;;22.20;17.20;;;8.00;99.90;;;;;;5035350;28;20207;-58
2022/01/29 04:05:39;;;;;;;28.58;19.52;;;8.00;99.90;;;;;;5035456;28;20182;-58
2022/01/29 04:08:12;;;;;;;23.70;17.13;;;8.10;99.90;;;;;;5035436;28;20620;-58
2022/01/29 04:10:38;;;;;;;24.02;17.38;;;8.10;99.90;;;;;;5035377;28;20176;-59
2022/01/29 04:13:04;;;;;;;26.00;18.38;;;8.10;99.90;;;;;;5035317;28;20664;-59
2022/01/29 04:15:30;;;;;;;25.40;19.08;;;8.00;99.90;;;;;;5035174;28;20210;-58
2022/01/29 04:17:55;;;;;;;24.65;18.40;;;8.10;99.90;;;;;;5035063;28;20701;-58
2022/01/29 04:20:21;;;;;;;20.73;17.40;;;8.10;99.90;;;;;;5035236;28;20196;-59
2022/01/29 04:22:47;;;;;;;21.75;16.35;;;8.10;99.90;;;;;;5035166;28;20683;-58
2022/01/29 04:25:13;;;;;;;18.27;16.38;;;8.10;99.90;;;;;;5035475;28;20180;-58
2022/01/29 04:27:44;;;;;;;20.75;16.65;;;8.00;99.90;;;;;;5035040;28;20601;-58
2022/01/29 04:30:18;;;;;;;20.45;16.00;;;8.10;99.90;;;;;;5034908;28;20672;-58
2022/01/29 04:35:19;;;;;;;21.65;16.40;;;8.10;99.90;;;;;;5034769;28;20194;-59
2022/01/29 04:37:46;;;;;;;18.65;15.75;;;8.20;99.90;;;;;;5033598;28;20177;-58
2022/01/29 04:40:12;;;;;;;16.25;14.52;;;8.30;99.90;;;;;;5034763;28;20648;-58
2022/01/29 04:42:38;;;;;;;19.70;16.05;;;8.30;99.90;;;;;;5034394;28;20208;-59
2022/01/29 04:45:04;;;;;;;17.98;15.00;;;8.30;99.90;;;;;;5033592;28;20188;-59
2022/01/29 04:47:30;;;;;;;17.00;15.07;;;8.30;99.90;;;;;;5034663;28;20183;-58
2022/01/29 04:49:55;;;;;;;15.93;14.23;;;8.20;99.90;;;;;;5033392;28;20176;-58
2022/01/29 04:52:21;;;;;;;17.73;15.20;;;8.20;99.90;;;;;;5034878;28;20185;-59
2022/01/29 04:54:46;;;;;;;16.08;14.38;;;8.20;99.90;;;;;;5033324;28;20183;-59
2022/01/29 04:57:12;;;;;;;17.88;14.73;;;8.20;99.90;;;;;;5034301;28;20172;-59
2022/01/29 04:59:38;;;;;;;15.77;14.07;;;8.30;99.90;;;;;;5034282;28;20620;-59
2022/01/29 05:02:03;;;;;;;18.48;14.77;;;8.30;99.90;;;;;;5034639;28;20211;-59
2022/01/29 05:04:29;;;;;;;16.38;14.10;;;8.30;99.90;;;;;;5034427;28;20184;-58
2022/01/29 05:06:54;;;;;;;18.58;15.43;;;8.30;99.90;;;;;;5034273;28;20180;-59
2022/01/29 05:09:20;;;;;;;17.17;14.00;;;8.40;99.90;;;;;;5034359;28;20180;-58
2022/01/29 05:11:49;;;;;;;16.48;14.32;;;8.30;99.90;;;;;;5034009;28;20176;-59
2022/01/29 05:14:42;;;;;;;18.75;14.18;;;8.40;99.90;;;;;;5034250;28;20180;-58
2022/01/29 05:27:45;;;;;;;19.58;15.48;;;8.40;99.90;;;;;;5034132;28;20213;-58
2022/01/29 05:30:11;;;;;;;18.45;14.55;;;8.50;99.90;;;;;;5033960;28;20536;-59
2022/01/29 05:32:36;;;;;;;17.67;14.43;;;8.50;99.90;;;;;;5032478;28;20199;-60
2022/01/29 05:35:02;;;;;;;16.83;14.07;;;8.50;99.90;;;;;;5033680;28;20182;-58
2022/01/29 05:37:28;;;;;;;16.90;14.52;;;8.50;99.90;;;;;;5033722;28;20180;-58
2022/01/29 05:39:53;;;;;;;20.17;15.82;;;8.50;99.90;;;;;;5033934;28;20172;-58
2022/01/29 05:42:19;;;;;;;16.83;14.50;;;8.50;99.90;;;;;;5033424;28;20287;-58
2022/01/29 05:44:44;;;;;;;15.32;13.80;;;8.50;99.90;;;;;;5033562;28;20223;-58
2022/01/29 05:47:10;;;;;;;16.45;14.63;;;8.30;99.90;;;;;;5033374;28;20203;-59
2022/01/29 05:49:35;;;;;;;17.10;14.93;;;8.40;99.90;;;;;;5033658;28;20183;-59
2022/01/29 05:52:01;;;;;;;16.30;14.60;;;8.50;99.90;;;;;;5033595;28;20680;-59
2022/01/29 05:54:27;;;;;;;15.85;14.18;;;8.50;99.90;;;;;;5033537;28;20179;-58
2022/01/29 05:56:53;;;;;;;19.23;14.98;;;8.50;99.90;;;;;;5033383;28;20169;-58
2022/01/29 05:59:18;;;;;;;15.98;14.27;;;8.60;99.90;;;;;;5033348;28;20175;-58
2022/01/29 06:01:44;;;;;;;15.45;13.57;;;8.60;99.90;;;;;;5033104;28;20186;-60
2022/01/29 06:04:09;;;;;;;15.65;14.05;;;8.60;99.90;;;;;;5033587;28;20191;-60
2022/01/29 06:06:35;;;;;;;14.85;13.27;;;8.50;99.90;;;;;;5033415;28;20168;-60
2022/01/29 06:09:04;;;;;;;15.88;13.80;;;8.50;99.90;;;;;;5033337;28;20215;-60
2022/01/29 06:11:33;;;;;;;15.77;13.48;;;8.40;99.90;;;;;;5031679;28;20172;-60
2022/01/29 06:14:00;;;;;;;14.90;13.40;;;8.40;99.90;;;;;;5032618;28;20176;-60
2022/01/29 06:16:26;;;;;;;16.42;13.20;;;8.40;99.90;;;;;;5032945;28;20164;-60
2022/01/29 06:18:51;;;;;;;16.77;13.65;;;8.40;99.90;;;;;;5033206;28;20183;-60
2022/01/29 06:21:17;;;;;;;15.98;13.63;;;8.50;99.90;;;;;;5015621;28;20180;-59
2022/01/29 06:23:44;;;;;;;16.83;13.68;;;8.40;99.90;;;;;;5032997;28;20281;-59
2022/01/29 06:26:13;;;;;;;16.70;13.68;;;8.50;99.90;;;;;;5033155;28;20173;-54
2022/01/29 06:28:40;;;;;;;20.45;14.90;;;8.60;99.90;;;;;;5032996;28;20214;-60
2022/01/29 06:31:07;;;;;;;17.17;13.38;;;8.60;99.90;;;;;;5032927;28;20207;-60
2022/01/29 06:33:33;;;;;;;14.18;12.68;;;8.60;99.90;;;;;;5033022;28;20629;-60
2022/01/29 06:35:59;;;;;;;17.75;14.18;;;8.50;99.90;;;;;;5033025;28;20172;-60
2022/01/29 06:38:25;;;;;;;17.50;13.50;;;8.50;99.90;;;;;;5032945;28;20187;-60
2022/01/29 06:40:51;;;;;;;15.30;12.40;;;8.60;99.90;;;;;;5032887;28;20266;-60
2022/01/29 06:43:17;;;;;;;15.90;14.15;;;8.70;99.90;;;;;;5031540;28;20216;-60
2022/01/29 06:45:44;;;;;;;19.77;13.65;;;8.70;99.90;;;;;;5032995;28;20263;-60
2022/01/29 06:48:11;;;;;;;16.70;13.55;;;8.80;99.90;;;;;;5032922;28;20176;-60
2022/01/29 06:50:37;;;;;;;15.40;13.80;;;8.80;99.90;;;;;;5032921;28;20178;-60
2022/01/29 06:53:04;;;;;;;14.23;12.77;;;8.70;99.90;;;;;;5032805;28;20222;-60
2022/01/29 06:55:30;;;;;;;14.48;12.88;;;8.60;99.90;;;;;;5032827;28;20184;-60
2022/01/29 06:57:56;;;;;;;17.38;14.07;;;8.70;99.90;;;;;;5032670;28;20178;-60
2022/01/29 07:00:21;;;;;;;15.07;13.48;;;8.70;99.90;;;;;;5034079;28;20196;-60
2022/01/29 07:02:47;;;;;;;15.88;13.25;;;8.70;99.90;;;;;;5036374;28;20208;-60
2022/01/29 07:05:13;;;;;;;15.95;13.68;;;8.70;99.90;;;;;;5035430;28;20180;-60
2022/01/29 07:07:40;;;;;;;17.02;13.75;;;8.80;99.90;;;;;;5015169;28;20173;-60
2022/01/29 07:10:07;;;;;;;14.88;12.60;;;8.70;99.90;;;;;;5015712;28;20172;-60
2022/01/29 07:12:35;;;;;;;14.95;13.38;;;8.80;99.90;;;;;;5016485;28;20583;-60
2022/01/29 07:15:01;;;;;;;16.33;13.85;;;8.80;99.90;;;;;;5016416;28;20235;-61
2022/01/29 07:17:27;;;;;;;17.33;14.02;;;8.80;99.90;;;;;;5015260;28;20181;-60
2022/01/29 07:19:52;;;;;;;16.13;14.07;;;8.90;99.90;;;;;;5016420;28;20176;-60
2022/01/29 07:22:19;;;;;;;15.00;13.38;;;8.90;99.90;;;;;;5016267;28;20208;-60
2022/01/29 07:24:46;;;;;;;16.77;14.55;;;8.90;99.90;;;;;;5016478;28;20585;-60
2022/01/29 07:27:12;;;;;;;16.95;14.52;;;8.90;99.90;;;;;;5015087;28;20247;-60
2022/01/29 07:29:38;;;;;;;16.38;14.50;;;9.00;99.90;;;;;;5013783;28;20272;-60
2022/01/29 07:32:04;;;;;;;16.70;14.40;;;8.90;99.90;;;;;;5015739;28;20542;-59
2022/01/29 07:34:30;;;;;;;16.17;14.52;;;8.90;99.90;;;;;;5014098;28;20183;-60
2022/01/29 07:36:56;;;;;;;19.25;14.70;;;8.90;99.90;;;;;;5015076;28;20184;-61
2022/01/29 07:39:24;;;;;;;18.08;14.80;;;8.90;99.90;;;;;;5016025;28;20172;-60
2022/01/29 07:41:50;;;;;;;19.38;14.25;;;9.00;99.90;;;;;;5016175;28;20234;-61
2022/01/29 07:44:16;;;;;;;19.02;14.75;;;9.10;99.90;;;;;;5016408;28;20188;-61
2022/01/29 07:46:42;;;;;;;16.23;14.05;;;9.10;99.90;;;;;;5014830;28;20177;-59
2022/01/29 07:49:08;;;;;;;19.25;14.48;;;9.10;99.90;;;;;;5015807;28;20168;-60
2022/01/29 07:51:35;;;;;;;17.40;14.60;;;9.20;99.90;;;;;;5014829;28;20263;-60
2022/01/29 07:54:00;;;;;;;18.23;14.48;;;9.20;99.90;;;;;;5025384;28;20183;-60
2022/01/29 07:56:26;;;;;;;18.60;14.75;;;9.10;99.90;;;;;;5034755;28;20190;-60
2022/01/29 07:58:52;;;;;;;15.55;13.93;;;9.10;99.90;;;;;;5035495;28;20636;-61
2022/01/29 08:01:18;;;;;;;14.93;13.38;;;9.20;99.90;;;;;;5035170;28;20225;-60
2022/01/29 08:03:48;;;;;;;16.15;14.00;;;9.10;99.90;;;;;;5035226;28;20207;-60
2022/01/29 08:06:15;;;;;;;20.38;13.65;;;9.10;99.90;;;;;;5026227;28;20181;-60
2022/01/29 08:08:40;;;;;;;17.52;13.60;;;9.10;99.90;;;;;;5014902;28;21105;-61
2022/01/29 08:11:07;;;;;;;16.45;13.65;;;9.10;99.90;;;;;;5034565;28;20180;-61
2022/01/29 08:13:33;;;;;;;17.02;13.40;;;9.20;99.90;;;;;;5021229;28;20270;-61
2022/01/29 08:15:59;;;;;;;15.20;13.40;;;9.10;99.90;;;;;;5034389;28;20178;-60
2022/01/29 08:18:25;;;;;;;16.60;12.77;;;9.20;99.90;;;;;;5035318;28;20266;-60
2022/01/29 08:20:50;;;;;;;13.90;12.40;;;9.20;99.90;;;;;;5034949;28;20226;-61
2022/01/29 08:23:16;;;;;;;13.52;11.40;;;9.20;99.90;;;;;;5034651;28;20592;-60
2022/01/29 08:25:42;;;;;;;14.25;12.75;;;9.20;99.90;;;;;;5034735;28;20216;-60
2022/01/29 08:28:07;;;;;;;17.63;12.38;;;9.20;99.90;;;;;;5028315;28;20833;-60
2022/01/29 08:30:34;;;;;;;13.77;12.00;;;9.30;99.90;;;;;;5028913;28;20188;-59
2022/01/29 08:33:00;;;;;;;13.88;10.43;;;9.40;99.90;;;;;;5034626;28;20188;-61
2022/01/29 08:35:26;;;;;;;13.82;12.02;;;9.30;99.90;;;;;;5034760;28;20187;-60
2022/01/29 08:37:53;;;;;;;13.63;11.23;;;9.40;99.90;;;;;;5033347;28;20168;-60
2022/01/29 08:40:19;;;;;;;12.25;10.48;;;9.40;99.90;;;;;;5033625;28;20172;-60
2022/01/29 08:42:45;;;;;;;12.60;11.23;;;9.40;99.90;;;;;;5034352;28;20203;-60
2022/01/29 08:45:13;;;;;;;13.30;10.50;;;9.50;99.90;;;;;;5034513;28;20179;-60
2022/01/29 08:47:40;;;;;;;14.85;11.23;;;9.40;99.90;;;;;;5034451;28;20188;-60
2022/01/29 08:50:06;;;;;;;13.70;10.75;;;9.50;99.90;;;;;;5034380;28;20172;-60
2022/01/29 08:52:32;;;;;;;11.82;9.95;;;9.40;99.90;;;;;;5034079;28;20506;-60
2022/01/29 08:54:58;;;;;;;12.63;10.90;;;9.50;99.90;;;;;;5034211;28;20179;-60
2022/01/29 08:57:24;;;;;;;15.98;11.65;;;9.50;99.90;;;;;;5033865;28;20168;-60
2022/01/29 08:59:50;;;;;;;11.32;10.15;;;9.50;99.90;;;;;;5032355;28;20227;-60
2022/01/29 09:02:16;;;;;;;12.50;11.18;;;9.40;99.90;;;;;;5033372;28;20323;-61
2022/01/29 09:04:41;;;;;;;13.65;11.68;;;9.40;99.90;;;;;;5034036;28;20229;-61
2022/01/29 09:07:09;;;;;;;16.25;11.77;;;9.50;99.90;;;;;;5034039;28;20182;-61
2022/01/29 09:09:35;;;;;;;14.48;12.00;;;9.60;99.90;;;;;;5033040;28;20179;-60
2022/01/29 09:12:02;;;;;;;14.32;12.15;;;9.60;99.90;;;;;;5016604;28;20176;-60
2022/01/29 09:14:27;;;;;;;14.40;11.85;;;9.60;99.90;;;;;;5033785;28;20180;-60
2022/01/29 09:16:53;;;;;;;13.73;12.18;;;9.60;99.90;;;;;;5034031;28;20178;-61
2022/01/29 09:19:19;;;;;;;16.10;12.13;;;9.60;99.90;;;;;;5033936;28;20613;-61
2022/01/29 09:21:45;;;;;;;13.48;11.15;;;9.70;99.90;;;;;;5034128;28;20168;-60
2022/01/29 09:24:10;;;;;;;15.10;11.43;;;9.80;99.90;;;;;;5033347;28;20180;-60
2022/01/29 09:26:36;;;;;;;11.75;10.65;;;9.80;99.90;;;;;;5034033;28;20187;-60
2022/01/29 09:29:03;;;;;;;11.35;10.13;;;9.80;99.90;;;;;;5033903;28;20175;-61
2022/01/29 09:31:29;;;;;;;11.38;9.98;;;9.80;99.90;;;;;;5033823;28;20195;-60
2022/01/29 09:33:55;;;;;;;12.35;9.60;;;10.00;99.90;;;;;;5033692;28;20263;-60
2022/01/29 09:36:21;;;;;;;11.48;9.52;;;9.90;99.90;;;;;;5033583;28;20187;-60
2022/01/29 09:38:47;;;;;;;11.60;9.05;;;9.80;99.90;;;;;;5032597;28;20255;-60
2022/01/29 09:41:16;;;;;;;10.95;8.70;;;9.90;99.90;;;;;;5033473;28;20176;-60
2022/01/29 09:43:43;;;;;;;11.15;8.38;;;9.90;99.90;;;;;;5033170;28;20669;-60
2022/01/29 09:46:10;;;;;;;10.82;8.20;;;9.90;99.90;;;;;;5033473;28;20644;-61
2022/01/29 09:48:36;;;;;;;8.60;7.70;;;10.00;99.90;;;;;;5033509;28;20355;-60
2022/01/29 09:51:05;;;;;;;9.88;7.20;;;10.10;99.90;;;;;;5033309;28;20176;-60
2022/01/29 09:53:31;;;;;;;9.02;6.80;;;10.00;99.90;;;;;;5033510;28;20180;-60
2022/01/29 09:55:56;;;;;;;7.78;6.35;;;10.10;99.90;;;;;;5032262;28;20184;-60
2022/01/29 09:58:22;;;;;;;9.23;6.07;;;10.10;99.90;;;;;;5033521;28;20652;-54
2022/01/29 10:00:48;;;;;;;7.30;5.00;;;10.20;99.90;;;;;;5033624;28;20172;-61
2022/01/29 10:03:15;;;;;;;7.03;5.72;;;10.20;99.90;;;;;;5031990;28;20208;-61
2022/01/29 10:05:44;;;;;;;7.80;5.80;;;10.30;99.90;;;;;;5031729;28;20538;-61
2022/01/29 10:08:10;;;;;;;7.22;5.13;;;10.20;99.90;;;;;;5032079;28;20538;-60
2022/01/29 10:10:44;;;;;;;6.00;4.95;;;10.30;99.90;;;;;;5032255;28;20225;-60
2022/01/29 10:13:37;;;;;;;5.95;4.43;;;10.40;99.90;;;;;;5033378;28;20561;-60
2022/01/29 10:16:30;;;;;;;7.20;4.90;;;10.60;99.90;;;;;;5033128;28;20199;-60
2022/01/29 10:19:00;;;;;;;6.78;4.70;;;10.60;99.90;;;;;;5031257;28;20184;-59
2022/01/29 10:21:33;;;;;;;6.65;4.47;;;10.60;99.90;;;;;;5032954;28;20163;-60
2022/01/29 10:24:03;;;;;;;7.22;4.50;;;10.60;99.90;;;;;;5032916;28;20230;-60
2022/01/29 10:26:33;;;;;;;6.68;4.68;;;10.60;99.90;;;;;;5031518;28;20545;-60
2022/01/29 10:28:59;;;;;;;8.70;4.47;;;10.70;99.90;;;;;;5033172;28;20183;-60
2022/01/29 10:31:26;;;;;;;6.95;4.75;;;10.60;99.90;;;;;;5033382;28;20191;-60
2022/01/29 10:33:52;;;;;;;6.82;4.88;;;10.70;99.90;;;;;;5033667;28;20180;-60
2022/01/29 10:36:20;;;;;;;7.15;4.22;;;10.80;99.90;;;;;;5037150;28;20176;-60
2022/01/29 10:38:55;;;;;;;4.75;4.25;;;10.80;99.90;;;;;;5036847;28;20640;-59
2022/01/29 10:41:31;;;;;;;6.90;4.03;;;10.80;99.90;;;;;;5037122;28;20667;-59
2022/01/29 10:44:24;;;;;;;6.60;4.60;;;10.90;99.90;;;;;;5034247;28;20725;-60
2022/01/29 10:46:51;;;;;;;5.45;4.15;;;11.00;99.90;;;;;;5034636;28;20176;-60
2022/01/29 10:49:28;;;;;;;7.80;4.38;;;11.00;99.90;;;;;;5035060;28;20719;-60
2022/01/29 10:52:14;;;;;;;6.72;3.92;;;11.10;99.90;;;;;;5034830;28;20168;-60
2022/01/29 10:54:43;;;;;;;7.07;3.95;;;11.10;99.90;;;;;;5034813;28;20172;-60
2022/01/29 10:57:10;;;;;;;4.60;3.65;;;11.10;99.90;;;;;;5034734;28;20179;-60
2022/01/29 10:59:45;;;;;;;4.10;3.45;;;11.00;99.90;;;;;;5035277;28;20176;-60
2022/01/29 11:02:12;;;;;;;6.63;3.47;;;11.00;99.90;;;;;;5036770;28;20195;-60
2022/01/29 11:04:39;;;;;;;4.80;3.55;;;11.00;99.90;;;;;;5036792;28;20188;-60
2022/01/29 11:07:11;;;;;;;3.97;3.13;;;11.10;99.90;;;;;;5036406;28;20617;-60
2022/01/29 11:09:41;;;;;;;5.32;3.38;;;11.20;99.90;;;;;;5036492;28;20183;-60
2022/01/29 11:12:08;;;;;;;6.35;3.58;;;11.10;99.90;;;;;;5036554;28;20215;-60
2022/01/29 11:14:35;;;;;;;5.32;3.05;;;11.10;99.90;;;;;;5036442;28;20176;-59
2022/01/29 11:17:03;;;;;;;3.40;3.03;;;11.00;99.90;;;;;;5036485;28;20587;-60
2022/01/29 11:19:29;;;;;;;3.15;2.80;;;11.00;99.90;;;;;;5036348;28;20625;-60
2022/01/29 11:21:58;;;;;;;5.20;3.03;;;11.10;99.90;;;;;;5036194;28;20180;-60
2022/01/29 11:24:27;;;;;;;6.30;2.70;;;11.10;99.90;;;;;;5036474;28;20214;-60
2022/01/29 11:26:52;;;;;;;3.08;2.78;;;11.20;99.90;;;;;;5036445;28;20176;-61
2022/01/29 11:29:33;;;;;;;5.57;3.42;;;11.30;99.90;;;;;;5036466;28;20640;-61
2022/01/29 11:32:21;;;;;;;5.10;3.15;;;11.30;99.90;;;;;;5035867;28;20226;-60
2022/01/29 11:35:06;;;;;;;3.65;2.97;;;11.30;99.90;;;;;;5036007;28;20203;-60
2022/01/29 11:37:44;;;;;;;4.45;3.05;;;11.20;99.90;;;;;;5035977;28;20637;-60
2022/01/29 11:40:28;;;;;;;4.65;2.95;;;11.20;99.90;;;;;;5036040;28;20171;-59
2022/01/29 11:43:13;;;;;;;3.88;2.75;;;11.40;99.90;;;;;;5035820;28;20676;-60
2022/01/29 11:46:04;;;;;;;4.00;3.20;;;11.40;99.90;;;;;;5035049;28;20187;-60
2022/01/29 11:48:31;;;;;;;3.65;2.63;;;11.40;99.90;;;;;;5035876;28;20327;-60
2022/01/29 11:50:58;;;;;;;6.55;3.38;;;11.40;99.90;;;;;;5035681;28;20548;-60
2022/01/29 11:53:26;;;;;;;2.92;2.53;;;11.40;99.90;;;;;;5035687;28;20168;-61
2022/01/29 11:55:56;;;;;;;3.22;2.30;;;11.50;99.90;;;;;;5035646;28;20168;-61
2022/01/29 11:58:31;;;;;;;3.33;2.50;;;11.60;99.90;;;;;;5035485;28;20624;-60
2022/01/29 12:00:58;;;;;;;3.58;2.20;;;11.70;99.90;;;;;;5035714;28;20550;-60
2022/01/29 12:09:08;;;;;;;4.55;2.10;;;11.70;99.90;;;;;;5035605;28;20533;-61
2022/01/29 12:11:38;;;;;;;3.38;2.00;;;11.90;99.90;;;;;;5035334;28;20172;-59
2022/01/29 12:14:13;;;;;;;4.13;2.22;;;11.90;99.90;;;;;;5035360;28;20253;-59
2022/01/29 12:17:07;;;;;;;4.53;2.25;;;12.10;99.90;;;;;;5035067;28;20220;-59
2022/01/29 12:19:46;;;;;;;3.15;2.08;;;12.00;99.90;;;;;;5033791;28;20227;-59
2022/01/29 12:22:17;;;;;;;2.55;2.17;;;11.90;99.90;;;;;;5035343;28;20204;-61
2022/01/29 12:24:56;;;;;;;5.20;2.20;;;11.90;99.90;;;;;;5034984;28;20175;-59
2022/01/29 12:27:39;;;;;;;5.25;2.10;;;12.00;99.90;;;;;;5035223;28;20172;-59
2022/01/29 12:30:05;;;;;;;4.25;1.98;;;12.10;99.90;;;;;;5035344;28;20613;-59
2022/01/29 12:32:31;;;;;;;4.13;2.00;;;12.20;99.90;;;;;;5034911;28;20195;-59
2022/01/29 12:34:59;;;;;;;4.07;2.17;;;12.30;99.90;;;;;;5034961;28;20183;-59
2022/01/29 12:37:25;;;;;;;4.20;2.20;;;12.20;99.90;;;;;;5034900;28;20265;-59
2022/01/29 12:40:06;;;;;;;3.90;2.13;;;12.20;99.90;;;;;;5035176;28;20180;-59
2022/01/29 12:42:44;;;;;;;6.07;2.60;;;12.20;99.90;;;;;;5034612;28;20660;-59
2022/01/29 12:45:09;;;;;;;5.80;3.03;;;12.20;99.90;;;;;;5034910;28;20180;-59
2022/01/29 12:47:36;;;;;;;4.90;2.72;;;12.10;99.90;;;;;;5034766;28;20180;-59
2022/01/29 12:50:03;;;;;;;5.93;2.58;;;12.10;99.90;;;;;;5034517;28;20278;-59
2022/01/29 12:52:30;;;;;;;5.35;2.72;;;12.30;99.90;;;;;;5034723;28;20199;-59
2022/01/29 12:54:58;;;;;;;4.65;2.60;;;12.30;99.90;;;;;;5034433;28;20636;-59
2022/01/29 12:57:25;;;;;;;4.13;2.30;;;12.30;99.90;;;;;;5033686;28;20179;-59
2022/01/29 12:59:50;;;;;;;3.85;2.47;;;12.30;99.90;;;;;;5034890;28;20659;-59
2022/01/29 13:02:16;;;;;;;6.60;2.33;;;12.30;99.90;;;;;;5034251;28;20278;-59